sensor_id;sensor_type;location;lat;lon;timestamp;P1;durP1;ratioP1;P2;durP2;ratioP2
38851;SDS011;24605;50.092;9.182;2022-11-20T00:00:02;36.40;;;16.25;;
38851;SDS011;24605;50.092;9.182;2022-11-20T00:02:29;40.42;;;18.52;;
38851;SDS011;24605;50.092;9.182;2022-11-20T00:04:55;39.22;;;17.73;;
38851;SDS011;24605;50.092;9.182;2022-11-20T00:07:24;42.75;;;19.40;;
38851;SDS011;24605;50.092;9.182;2022-11-20T00:09:50;44.40;;;19.52;;
38851;SDS011;24605;50.092;9.182;2022-11-20T00:12:16;43.08;;;18.95;;
38851;SDS011;24605;50.092;9.182;2022-11-20T00:14:43;44.05;;;18.50;;
38851;SDS011;24605;50.092;9.182;2022-11-20T00:17:09;45.05;;;20.60;;
38851;SDS011;24605;50.092;9.182;2022-11-20T00:19:36;42.63;;;18.58;;
38851;SDS011;24605;50.092;9.182;2022-11-20T00:22:02;44.92;;;19.25;;
38851;SDS011;24605;50.092;9.182;2022-11-20T00:24:30;41.85;;;18.48;;
38851;SDS011;24605;50.092;9.182;2022-11-20T00:26:56;41.33;;;18.30;;
38851;SDS011;24605;50.092;9.182;2022-11-20T00:29:23;44.20;;;18.73;;
38851;SDS011;24605;50.092;9.182;2022-11-20T00:31:49;40.78;;;18.40;;
38851;SDS011;24605;50.092;9.182;2022-11-20T00:34:16;42.13;;;18.52;;
38851;SDS011;24605;50.092;9.182;2022-11-20T00:36:42;38.72;;;16.95;;
38851;SDS011;24605;50.092;9.182;2022-11-20T00:39:09;36.65;;;16.73;;
38851;SDS011;24605;50.092;9.182;2022-11-20T00:41:36;41.00;;;17.60;;
38851;SDS011;24605;50.092;9.182;2022-11-20T00:44:03;38.20;;;17.23;;
38851;SDS011;24605;50.092;9.182;2022-11-20T00:46:30;38.83;;;17.98;;
38851;SDS011;24605;50.092;9.182;2022-11-20T00:48:56;43.17;;;18.20;;
38851;SDS011;24605;50.092;9.182;2022-11-20T00:51:23;41.95;;;18.45;;
38851;SDS011;24605;50.092;9.182;2022-11-20T00:53:51;40.15;;;17.90;;
38851;SDS011;24605;50.092;9.182;2022-11-20T00:56:18;41.03;;;17.75;;
38851;SDS011;24605;50.092;9.182;2022-11-20T00:58:47;37.85;;;16.83;;
38851;SDS011;24605;50.092;9.182;2022-11-20T01:01:15;43.85;;;18.52;;
38851;SDS011;24605;50.092;9.182;2022-11-20T01:03:44;41.28;;;18.33;;
38851;SDS011;24605;50.092;9.182;2022-11-20T01:06:12;41.53;;;17.63;;
38851;SDS011;24605;50.092;9.182;2022-11-20T01:08:40;39.63;;;18.27;;
38851;SDS011;24605;50.092;9.182;2022-11-20T01:11:08;40.80;;;18.05;;
38851;SDS011;24605;50.092;9.182;2022-11-20T01:13:36;41.97;;;19.13;;
38851;SDS011;24605;50.092;9.182;2022-11-20T01:16:04;43.75;;;19.00;;
38851;SDS011;24605;50.092;9.182;2022-11-20T01:18:31;38.55;;;17.45;;
38851;SDS011;24605;50.092;9.182;2022-11-20T01:21:00;43.60;;;18.38;;
38851;SDS011;24605;50.092;9.182;2022-11-20T01:23:29;38.95;;;17.92;;
38851;SDS011;24605;50.092;9.182;2022-11-20T01:25:57;39.53;;;17.73;;
38851;SDS011;24605;50.092;9.182;2022-11-20T01:28:25;37.50;;;16.40;;
38851;SDS011;24605;50.092;9.182;2022-11-20T01:30:52;37.42;;;16.92;;
38851;SDS011;24605;50.092;9.182;2022-11-20T01:33:20;39.75;;;17.45;;
38851;SDS011;24605;50.092;9.182;2022-11-20T01:35:46;39.55;;;17.48;;
38851;SDS011;24605;50.092;9.182;2022-11-20T01:38:13;37.42;;;17.08;;
38851;SDS011;24605;50.092;9.182;2022-11-20T01:40:40;41.90;;;17.38;;
38851;SDS011;24605;50.092;9.182;2022-11-20T01:43:09;40.08;;;18.15;;
38851;SDS011;24605;50.092;9.182;2022-11-20T01:48:42;40.42;;;18.30;;
38851;SDS011;24605;50.092;9.182;2022-11-20T01:51:16;40.80;;;17.93;;
38851;SDS011;24605;50.092;9.182;2022-11-20T01:53:47;42.15;;;17.42;;
38851;SDS011;24605;50.092;9.182;2022-11-20T01:56:14;42.90;;;19.13;;
38851;SDS011;24605;50.092;9.182;2022-11-20T01:58:42;42.33;;;18.60;;
38851;SDS011;24605;50.092;9.182;2022-11-20T02:01:13;43.33;;;19.25;;
38851;SDS011;24605;50.092;9.182;2022-11-20T02:03:40;41.28;;;18.00;;
38851;SDS011;24605;50.092;9.182;2022-11-20T02:06:10;40.75;;;19.27;;
38851;SDS011;24605;50.092;9.182;2022-11-20T02:08:40;43.05;;;19.67;;
38851;SDS011;24605;50.092;9.182;2022-11-20T02:11:06;41.65;;;18.58;;
38851;SDS011;24605;50.092;9.182;2022-11-20T02:13:33;42.80;;;18.63;;
38851;SDS011;24605;50.092;9.182;2022-11-20T02:16:09;39.42;;;17.80;;
38851;SDS011;24605;50.092;9.182;2022-11-20T02:18:39;40.28;;;18.02;;
38851;SDS011;24605;50.092;9.182;2022-11-20T02:21:08;40.58;;;17.80;;
38851;SDS011;24605;50.092;9.182;2022-11-20T02:23:52;39.28;;;17.15;;
38851;SDS011;24605;50.092;9.182;2022-11-20T02:26:23;43.13;;;17.85;;
38851;SDS011;24605;50.092;9.182;2022-11-20T02:28:52;42.88;;;17.25;;
38851;SDS011;24605;50.092;9.182;2022-11-20T02:31:19;37.90;;;17.25;;
38851;SDS011;24605;50.092;9.182;2022-11-20T02:33:45;42.25;;;18.75;;
38851;SDS011;24605;50.092;9.182;2022-11-20T02:36:13;43.40;;;17.98;;
38851;SDS011;24605;50.092;9.182;2022-11-20T02:38:42;41.28;;;17.95;;
38851;SDS011;24605;50.092;9.182;2022-11-20T02:41:11;41.70;;;18.15;;
38851;SDS011;24605;50.092;9.182;2022-11-20T02:43:37;40.58;;;18.17;;
38851;SDS011;24605;50.092;9.182;2022-11-20T02:46:05;42.20;;;17.73;;
38851;SDS011;24605;50.092;9.182;2022-11-20T02:48:33;45.08;;;18.70;;
38851;SDS011;24605;50.092;9.182;2022-11-20T02:51:00;45.30;;;18.90;;
38851;SDS011;24605;50.092;9.182;2022-11-20T02:53:27;44.40;;;18.77;;
38851;SDS011;24605;50.092;9.182;2022-11-20T02:55:53;42.15;;;17.67;;
38851;SDS011;24605;50.092;9.182;2022-11-20T02:58:21;39.25;;;16.90;;
38851;SDS011;24605;50.092;9.182;2022-11-20T03:00:48;41.38;;;17.92;;
38851;SDS011;24605;50.092;9.182;2022-11-20T03:03:14;40.38;;;18.40;;
38851;SDS011;24605;50.092;9.182;2022-11-20T03:05:40;43.13;;;18.05;;
38851;SDS011;24605;50.092;9.182;2022-11-20T03:08:07;43.35;;;19.13;;
38851;SDS011;24605;50.092;9.182;2022-11-20T03:10:33;44.10;;;18.15;;
38851;SDS011;24605;50.092;9.182;2022-11-20T03:13:00;43.10;;;17.70;;
38851;SDS011;24605;50.092;9.182;2022-11-20T03:15:27;39.00;;;17.10;;
38851;SDS011;24605;50.092;9.182;2022-11-20T03:17:54;38.58;;;16.17;;
38851;SDS011;24605;50.092;9.182;2022-11-20T03:20:21;42.88;;;19.08;;
38851;SDS011;24605;50.092;9.182;2022-11-20T03:22:47;41.33;;;17.77;;
38851;SDS011;24605;50.092;9.182;2022-11-20T03:25:14;40.00;;;17.10;;
38851;SDS011;24605;50.092;9.182;2022-11-20T03:27:40;41.28;;;17.25;;
38851;SDS011;24605;50.092;9.182;2022-11-20T03:30:07;40.13;;;17.33;;
38851;SDS011;24605;50.092;9.182;2022-11-20T03:32:36;42.15;;;16.38;;
38851;SDS011;24605;50.092;9.182;2022-11-20T03:35:03;37.38;;;16.55;;
38851;SDS011;24605;50.092;9.182;2022-11-20T03:37:30;45.00;;;17.75;;
38851;SDS011;24605;50.092;9.182;2022-11-20T03:39:57;40.97;;;17.85;;
38851;SDS011;24605;50.092;9.182;2022-11-20T03:42:24;45.33;;;18.15;;
38851;SDS011;24605;50.092;9.182;2022-11-20T03:45:08;42.47;;;17.93;;
38851;SDS011;24605;50.092;9.182;2022-11-20T03:47:34;44.22;;;17.33;;
38851;SDS011;24605;50.092;9.182;2022-11-20T03:50:02;45.47;;;19.38;;
38851;SDS011;24605;50.092;9.182;2022-11-20T03:52:29;45.22;;;19.20;;
38851;SDS011;24605;50.092;9.182;2022-11-20T03:54:56;45.03;;;19.73;;
38851;SDS011;24605;50.092;9.182;2022-11-20T03:57:22;48.17;;;18.05;;
38851;SDS011;24605;50.092;9.182;2022-11-20T03:59:49;48.63;;;18.90;;
38851;SDS011;24605;50.092;9.182;2022-11-20T04:02:15;44.30;;;18.42;;
38851;SDS011;24605;50.092;9.182;2022-11-20T04:04:43;40.55;;;16.92;;
38851;SDS011;24605;50.092;9.182;2022-11-20T04:07:10;45.85;;;17.75;;
38851;SDS011;24605;50.092;9.182;2022-11-20T04:09:36;44.00;;;18.33;;
38851;SDS011;24605;50.092;9.182;2022-11-20T04:12:03;52.58;;;19.90;;
38851;SDS011;24605;50.092;9.182;2022-11-20T04:14:30;53.50;;;20.05;;
38851;SDS011;24605;50.092;9.182;2022-11-20T04:16:56;48.03;;;19.10;;
38851;SDS011;24605;50.092;9.182;2022-11-20T04:19:22;47.90;;;18.98;;
38851;SDS011;24605;50.092;9.182;2022-11-20T04:21:50;48.63;;;18.98;;
38851;SDS011;24605;50.092;9.182;2022-11-20T04:24:17;51.42;;;19.27;;
38851;SDS011;24605;50.092;9.182;2022-11-20T04:26:43;51.35;;;19.88;;
38851;SDS011;24605;50.092;9.182;2022-11-20T04:29:10;56.70;;;21.45;;
38851;SDS011;24605;50.092;9.182;2022-11-20T04:31:37;56.95;;;19.00;;
38851;SDS011;24605;50.092;9.182;2022-11-20T04:34:04;52.70;;;18.45;;
38851;SDS011;24605;50.092;9.182;2022-11-20T04:36:33;51.45;;;18.38;;
38851;SDS011;24605;50.092;9.182;2022-11-20T04:39:02;49.28;;;17.83;;
38851;SDS011;24605;50.092;9.182;2022-11-20T04:41:31;50.40;;;19.02;;
38851;SDS011;24605;50.092;9.182;2022-11-20T04:43:59;50.53;;;18.90;;
38851;SDS011;24605;50.092;9.182;2022-11-20T04:46:28;55.30;;;18.67;;
38851;SDS011;24605;50.092;9.182;2022-11-20T04:48:56;46.35;;;17.25;;
38851;SDS011;24605;50.092;9.182;2022-11-20T04:51:23;45.40;;;17.30;;
38851;SDS011;24605;50.092;9.182;2022-11-20T04:53:49;49.42;;;18.65;;
38851;SDS011;24605;50.092;9.182;2022-11-20T04:56:17;47.10;;;17.90;;
38851;SDS011;24605;50.092;9.182;2022-11-20T04:58:43;49.72;;;17.48;;
38851;SDS011;24605;50.092;9.182;2022-11-20T05:01:11;45.40;;;17.08;;
38851;SDS011;24605;50.092;9.182;2022-11-20T05:03:39;51.13;;;19.35;;
38851;SDS011;24605;50.092;9.182;2022-11-20T05:06:06;49.85;;;18.50;;
38851;SDS011;24605;50.092;9.182;2022-11-20T05:08:33;48.70;;;18.52;;
38851;SDS011;24605;50.092;9.182;2022-11-20T05:11:00;57.92;;;23.08;;
38851;SDS011;24605;50.092;9.182;2022-11-20T05:13:29;52.13;;;21.23;;
38851;SDS011;24605;50.092;9.182;2022-11-20T05:15:55;50.67;;;17.65;;
38851;SDS011;24605;50.092;9.182;2022-11-20T05:18:27;48.92;;;17.95;;
38851;SDS011;24605;50.092;9.182;2022-11-20T05:20:54;46.40;;;17.05;;
38851;SDS011;24605;50.092;9.182;2022-11-20T05:23:21;53.80;;;19.25;;
38851;SDS011;24605;50.092;9.182;2022-11-20T05:25:47;48.15;;;18.02;;
38851;SDS011;24605;50.092;9.182;2022-11-20T05:28:14;52.35;;;17.50;;
38851;SDS011;24605;50.092;9.182;2022-11-20T05:30:42;49.78;;;17.20;;
38851;SDS011;24605;50.092;9.182;2022-11-20T05:33:08;52.25;;;16.35;;
38851;SDS011;24605;50.092;9.182;2022-11-20T05:35:35;52.63;;;17.67;;
38851;SDS011;24605;50.092;9.182;2022-11-20T05:38:01;46.22;;;17.20;;
38851;SDS011;24605;50.092;9.182;2022-11-20T05:40:28;46.67;;;17.52;;
38851;SDS011;24605;50.092;9.182;2022-11-20T05:42:54;55.92;;;19.42;;
38851;SDS011;24605;50.092;9.182;2022-11-20T05:45:21;56.58;;;18.35;;
38851;SDS011;24605;50.092;9.182;2022-11-20T05:47:49;57.80;;;21.52;;
38851;SDS011;24605;50.092;9.182;2022-11-20T05:50:15;58.45;;;18.92;;
38851;SDS011;24605;50.092;9.182;2022-11-20T05:52:42;58.88;;;19.17;;
38851;SDS011;24605;50.092;9.182;2022-11-20T05:55:08;65.65;;;18.75;;
38851;SDS011;24605;50.092;9.182;2022-11-20T05:57:35;64.55;;;18.55;;
38851;SDS011;24605;50.092;9.182;2022-11-20T06:00:02;68.00;;;19.08;;
38851;SDS011;24605;50.092;9.182;2022-11-20T06:02:28;59.60;;;17.60;;
38851;SDS011;24605;50.092;9.182;2022-11-20T06:04:56;44.50;;;16.00;;
38851;SDS011;24605;50.092;9.182;2022-11-20T06:07:23;76.93;;;18.10;;
38851;SDS011;24605;50.092;9.182;2022-11-20T06:09:49;73.00;;;18.23;;
38851;SDS011;24605;50.092;9.182;2022-11-20T06:12:16;67.18;;;17.05;;
38851;SDS011;24605;50.092;9.182;2022-11-20T06:14:42;85.90;;;18.95;;
38851;SDS011;24605;50.092;9.182;2022-11-20T06:17:08;236.95;;;21.20;;
38851;SDS011;24605;50.092;9.182;2022-11-20T06:19:35;64.75;;;17.17;;
38851;SDS011;24605;50.092;9.182;2022-11-20T06:22:03;49.70;;;17.95;;
38851;SDS011;24605;50.092;9.182;2022-11-20T06:24:29;74.53;;;17.58;;
38851;SDS011;24605;50.092;9.182;2022-11-20T06:26:55;129.32;;;18.55;;
38851;SDS011;24605;50.092;9.182;2022-11-20T06:29:22;60.58;;;15.82;;
38851;SDS011;24605;50.092;9.182;2022-11-20T06:31:48;132.75;;;18.73;;
38851;SDS011;24605;50.092;9.182;2022-11-20T06:34:15;276.15;;;21.88;;
38851;SDS011;24605;50.092;9.182;2022-11-20T06:36:41;165.77;;;20.20;;
38851;SDS011;24605;50.092;9.182;2022-11-20T06:39:09;292.27;;;22.15;;
38851;SDS011;24605;50.092;9.182;2022-11-20T06:41:36;244.88;;;21.10;;
38851;SDS011;24605;50.092;9.182;2022-11-20T06:44:03;46.50;;;16.40;;
38851;SDS011;24605;50.092;9.182;2022-11-20T06:46:30;161.38;;;18.17;;
38851;SDS011;24605;50.092;9.182;2022-11-20T06:48:57;136.52;;;18.40;;
38851;SDS011;24605;50.092;9.182;2022-11-20T06:51:24;256.27;;;23.23;;
38851;SDS011;24605;50.092;9.182;2022-11-20T06:53:50;223.00;;;24.13;;
38851;SDS011;24605;50.092;9.182;2022-11-20T06:56:18;177.35;;;20.52;;
38851;SDS011;24605;50.092;9.182;2022-11-20T06:58:44;49.17;;;16.42;;
38851;SDS011;24605;50.092;9.182;2022-11-20T07:01:11;181.20;;;20.23;;
38851;SDS011;24605;50.092;9.182;2022-11-20T07:03:39;183.63;;;20.08;;
38851;SDS011;24605;50.092;9.182;2022-11-20T07:06:06;101.15;;;17.17;;
38851;SDS011;24605;50.092;9.182;2022-11-20T07:08:33;75.57;;;15.23;;
38851;SDS011;24605;50.092;9.182;2022-11-20T07:11:01;61.78;;;15.52;;
38851;SDS011;24605;50.092;9.182;2022-11-20T07:13:31;45.92;;;16.10;;
38851;SDS011;24605;50.092;9.182;2022-11-20T07:15:58;88.80;;;19.50;;
38851;SDS011;24605;50.092;9.182;2022-11-20T07:18:26;113.10;;;22.92;;
38851;SDS011;24605;50.092;9.182;2022-11-20T07:20:52;95.80;;;19.50;;
38851;SDS011;24605;50.092;9.182;2022-11-20T07:23:19;53.10;;;17.15;;
38851;SDS011;24605;50.092;9.182;2022-11-20T07:25:45;48.10;;;16.77;;
38851;SDS011;24605;50.092;9.182;2022-11-20T07:28:11;49.78;;;16.02;;
38851;SDS011;24605;50.092;9.182;2022-11-20T07:30:40;234.88;;;22.92;;
38851;SDS011;24605;50.092;9.182;2022-11-20T07:33:06;170.32;;;21.25;;
38851;SDS011;24605;50.092;9.182;2022-11-20T07:35:32;239.32;;;23.80;;
38851;SDS011;24605;50.092;9.182;2022-11-20T07:37:59;172.65;;;20.92;;
38851;SDS011;24605;50.092;9.182;2022-11-20T07:40:25;54.88;;;17.23;;
38851;SDS011;24605;50.092;9.182;2022-11-20T07:42:54;122.30;;;21.15;;
38851;SDS011;24605;50.092;9.182;2022-11-20T07:45:22;116.38;;;20.38;;
38851;SDS011;24605;50.092;9.182;2022-11-20T07:47:51;298.63;;;23.90;;
38851;SDS011;24605;50.092;9.182;2022-11-20T07:50:18;88.97;;;16.13;;
38851;SDS011;24605;50.092;9.182;2022-11-20T07:52:45;36.65;;;12.65;;
38851;SDS011;24605;50.092;9.182;2022-11-20T07:55:12;61.55;;;12.85;;
38851;SDS011;24605;50.092;9.182;2022-11-20T07:57:38;36.08;;;11.80;;
38851;SDS011;24605;50.092;9.182;2022-11-20T08:00:06;61.85;;;14.40;;
38851;SDS011;24605;50.092;9.182;2022-11-20T08:02:36;50.90;;;13.40;;
38851;SDS011;24605;50.092;9.182;2022-11-20T08:05:04;30.75;;;12.52;;
38851;SDS011;24605;50.092;9.182;2022-11-20T08:07:34;51.40;;;16.00;;
38851;SDS011;24605;50.092;9.182;2022-11-20T08:10:02;36.30;;;12.95;;
38851;SDS011;24605;50.092;9.182;2022-11-20T08:12:28;61.05;;;15.25;;
38851;SDS011;24605;50.092;9.182;2022-11-20T08:15:13;44.40;;;15.50;;
38851;SDS011;24605;50.092;9.182;2022-11-20T08:17:39;47.08;;;16.80;;
38851;SDS011;24605;50.092;9.182;2022-11-20T08:20:07;34.75;;;13.02;;
38851;SDS011;24605;50.092;9.182;2022-11-20T08:22:34;75.00;;;14.75;;
38851;SDS011;24605;50.092;9.182;2022-11-20T08:25:01;29.17;;;11.00;;
38851;SDS011;24605;50.092;9.182;2022-11-20T08:27:27;27.30;;;11.18;;
38851;SDS011;24605;50.092;9.182;2022-11-20T08:29:54;66.28;;;12.82;;
38851;SDS011;24605;50.092;9.182;2022-11-20T08:32:20;34.22;;;10.52;;
38851;SDS011;24605;50.092;9.182;2022-11-20T08:34:46;32.60;;;10.95;;
38851;SDS011;24605;50.092;9.182;2022-11-20T08:37:14;37.28;;;10.60;;
38851;SDS011;24605;50.092;9.182;2022-11-20T08:39:41;29.02;;;11.00;;
38851;SDS011;24605;50.092;9.182;2022-11-20T08:42:07;26.27;;;10.35;;
38851;SDS011;24605;50.092;9.182;2022-11-20T08:44:34;22.77;;;9.40;;
38851;SDS011;24605;50.092;9.182;2022-11-20T08:47:00;26.90;;;11.55;;
38851;SDS011;24605;50.092;9.182;2022-11-20T08:49:27;22.73;;;9.30;;
38851;SDS011;24605;50.092;9.182;2022-11-20T08:51:53;25.17;;;9.90;;
38851;SDS011;24605;50.092;9.182;2022-11-20T08:54:21;26.35;;;11.00;;
38851;SDS011;24605;50.092;9.182;2022-11-20T08:56:47;21.25;;;9.95;;
38851;SDS011;24605;50.092;9.182;2022-11-20T08:59:14;28.90;;;10.75;;
38851;SDS011;24605;50.092;9.182;2022-11-20T09:01:41;27.30;;;10.57;;
38851;SDS011;24605;50.092;9.182;2022-11-20T09:04:07;24.17;;;9.38;;
38851;SDS011;24605;50.092;9.182;2022-11-20T09:06:34;24.38;;;9.75;;
38851;SDS011;24605;50.092;9.182;2022-11-20T09:09:00;32.08;;;13.20;;
38851;SDS011;24605;50.092;9.182;2022-11-20T09:11:28;40.17;;;15.80;;
38851;SDS011;24605;50.092;9.182;2022-11-20T09:13:54;33.95;;;13.75;;
38851;SDS011;24605;50.092;9.182;2022-11-20T09:16:21;64.90;;;23.13;;
38851;SDS011;24605;50.092;9.182;2022-11-20T09:18:49;48.35;;;17.88;;
38851;SDS011;24605;50.092;9.182;2022-11-20T09:21:16;46.13;;;17.60;;
38851;SDS011;24605;50.092;9.182;2022-11-20T09:23:42;41.55;;;15.13;;
38851;SDS011;24605;50.092;9.182;2022-11-20T09:26:09;34.40;;;12.75;;
38851;SDS011;24605;50.092;9.182;2022-11-20T09:28:38;31.65;;;12.52;;
38851;SDS011;24605;50.092;9.182;2022-11-20T09:31:05;41.42;;;17.02;;
38851;SDS011;24605;50.092;9.182;2022-11-20T09:33:32;90.85;;;19.95;;
38851;SDS011;24605;50.092;9.182;2022-11-20T09:35:58;64.07;;;23.23;;
38851;SDS011;24605;50.092;9.182;2022-11-20T09:38:25;75.70;;;24.40;;
38851;SDS011;24605;50.092;9.182;2022-11-20T09:40:54;130.13;;;19.80;;
38851;SDS011;24605;50.092;9.182;2022-11-20T09:43:25;59.75;;;17.35;;
38851;SDS011;24605;50.092;9.182;2022-11-20T09:46:02;35.33;;;14.35;;
38851;SDS011;24605;50.092;9.182;2022-11-20T09:48:37;35.45;;;13.75;;
38851;SDS011;24605;50.092;9.182;2022-11-20T09:51:14;30.90;;;13.35;;
38851;SDS011;24605;50.092;9.182;2022-11-20T09:53:52;31.63;;;13.50;;
38851;SDS011;24605;50.092;9.182;2022-11-20T09:56:27;36.45;;;13.80;;
38851;SDS011;24605;50.092;9.182;2022-11-20T09:58:55;35.00;;;12.90;;
38851;SDS011;24605;50.092;9.182;2022-11-20T10:01:28;27.77;;;12.30;;
38851;SDS011;24605;50.092;9.182;2022-11-20T10:03:58;31.33;;;12.85;;
38851;SDS011;24605;50.092;9.182;2022-11-20T10:06:29;27.48;;;12.20;;
38851;SDS011;24605;50.092;9.182;2022-11-20T10:09:03;29.60;;;11.10;;
38851;SDS011;24605;50.092;9.182;2022-11-20T10:11:42;32.92;;;14.30;;
38851;SDS011;24605;50.092;9.182;2022-11-20T10:14:17;45.75;;;15.73;;
38851;SDS011;24605;50.092;9.182;2022-11-20T10:16:56;151.02;;;16.88;;
38851;SDS011;24605;50.092;9.182;2022-11-20T10:19:33;77.88;;;15.30;;
38851;SDS011;24605;50.092;9.182;2022-11-20T10:22:14;229.77;;;21.98;;
38851;SDS011;24605;50.092;9.182;2022-11-20T10:24:55;366.40;;;23.17;;
38851;SDS011;24605;50.092;9.182;2022-11-20T10:27:33;200.27;;;18.13;;
38851;SDS011;24605;50.092;9.182;2022-11-20T10:30:13;202.93;;;17.75;;
38851;SDS011;24605;50.092;9.182;2022-11-20T10:32:43;167.73;;;18.90;;
38851;SDS011;24605;50.092;9.182;2022-11-20T10:35:19;143.70;;;17.80;;
38851;SDS011;24605;50.092;9.182;2022-11-20T10:37:49;125.78;;;18.30;;
38851;SDS011;24605;50.092;9.182;2022-11-20T10:40:21;109.07;;;19.83;;
38851;SDS011;24605;50.092;9.182;2022-11-20T10:42:55;66.35;;;17.15;;
38851;SDS011;24605;50.092;9.182;2022-11-20T10:45:31;48.50;;;16.67;;
38851;SDS011;24605;50.092;9.182;2022-11-20T10:48:12;73.07;;;16.00;;
38851;SDS011;24605;50.092;9.182;2022-11-20T10:50:46;45.78;;;17.77;;
38851;SDS011;24605;50.092;9.182;2022-11-20T10:53:30;39.03;;;14.07;;
38851;SDS011;24605;50.092;9.182;2022-11-20T10:56:07;36.72;;;14.38;;
38851;SDS011;24605;50.092;9.182;2022-11-20T10:58:43;38.70;;;16.48;;
38851;SDS011;24605;50.092;9.182;2022-11-20T11:01:16;34.47;;;14.63;;
38851;SDS011;24605;50.092;9.182;2022-11-20T11:03:44;31.98;;;15.38;;
38851;SDS011;24605;50.092;9.182;2022-11-20T11:06:13;27.92;;;12.77;;
38851;SDS011;24605;50.092;9.182;2022-11-20T11:08:46;32.80;;;13.50;;
38851;SDS011;24605;50.092;9.182;2022-11-20T11:11:20;35.28;;;14.07;;
38851;SDS011;24605;50.092;9.182;2022-11-20T11:13:48;34.38;;;15.02;;
38851;SDS011;24605;50.092;9.182;2022-11-20T11:16:19;32.70;;;15.32;;
38851;SDS011;24605;50.092;9.182;2022-11-20T11:18:48;33.97;;;13.15;;
38851;SDS011;24605;50.092;9.182;2022-11-20T11:21:20;37.83;;;15.88;;
38851;SDS011;24605;50.092;9.182;2022-11-20T11:23:56;37.75;;;15.50;;
38851;SDS011;24605;50.092;9.182;2022-11-20T11:26:24;39.00;;;17.00;;
38851;SDS011;24605;50.092;9.182;2022-11-20T11:28:55;52.08;;;17.67;;
38851;SDS011;24605;50.092;9.182;2022-11-20T11:31:23;64.13;;;19.80;;
38851;SDS011;24605;50.092;9.182;2022-11-20T11:33:52;51.22;;;18.95;;
38851;SDS011;24605;50.092;9.182;2022-11-20T11:36:29;56.40;;;18.48;;
38851;SDS011;24605;50.092;9.182;2022-11-20T11:38:55;50.50;;;19.85;;
38851;SDS011;24605;50.092;9.182;2022-11-20T11:41:22;44.17;;;18.25;;
38851;SDS011;24605;50.092;9.182;2022-11-20T11:43:51;40.67;;;17.80;;
38851;SDS011;24605;50.092;9.182;2022-11-20T11:46:37;51.63;;;21.77;;
38851;SDS011;24605;50.092;9.182;2022-11-20T11:49:15;49.03;;;20.67;;
38851;SDS011;24605;50.092;9.182;2022-11-20T11:51:46;45.93;;;18.50;;
38851;SDS011;24605;50.092;9.182;2022-11-20T11:54:24;59.45;;;20.33;;
38851;SDS011;24605;50.092;9.182;2022-11-20T11:56:57;42.08;;;18.05;;
38851;SDS011;24605;50.092;9.182;2022-11-20T11:59:27;44.20;;;17.38;;
38851;SDS011;24605;50.092;9.182;2022-11-20T12:02:11;47.13;;;18.80;;
38851;SDS011;24605;50.092;9.182;2022-11-20T12:04:49;41.30;;;17.55;;
38851;SDS011;24605;50.092;9.182;2022-11-20T12:07:22;42.88;;;17.65;;
38851;SDS011;24605;50.092;9.182;2022-11-20T12:10:02;55.13;;;18.35;;
38851;SDS011;24605;50.092;9.182;2022-11-20T12:12:30;42.10;;;16.45;;
38851;SDS011;24605;50.092;9.182;2022-11-20T12:15:01;57.10;;;21.13;;
38851;SDS011;24605;50.092;9.182;2022-11-20T12:17:30;40.70;;;18.48;;
38851;SDS011;24605;50.092;9.182;2022-11-20T12:19:58;43.50;;;17.83;;
38851;SDS011;24605;50.092;9.182;2022-11-20T12:22:26;45.33;;;18.98;;
38851;SDS011;24605;50.092;9.182;2022-11-20T12:25:02;44.40;;;19.25;;
38851;SDS011;24605;50.092;9.182;2022-11-20T12:27:47;44.40;;;19.35;;
38851;SDS011;24605;50.092;9.182;2022-11-20T12:30:22;43.20;;;17.73;;
38851;SDS011;24605;50.092;9.182;2022-11-20T12:32:56;40.53;;;18.60;;
38851;SDS011;24605;50.092;9.182;2022-11-20T12:35:48;41.63;;;18.20;;
38851;SDS011;24605;50.092;9.182;2022-11-20T12:38:32;41.90;;;17.42;;
38851;SDS011;24605;50.092;9.182;2022-11-20T12:41:10;42.67;;;17.88;;
38851;SDS011;24605;50.092;9.182;2022-11-20T12:46:56;42.03;;;16.92;;
38851;SDS011;24605;50.092;9.182;2022-11-20T12:49:37;50.60;;;22.10;;
38851;SDS011;24605;50.092;9.182;2022-11-20T12:52:22;46.95;;;20.38;;
38851;SDS011;24605;50.092;9.182;2022-11-20T12:55:16;47.92;;;19.27;;
38851;SDS011;24605;50.092;9.182;2022-11-20T12:57:50;46.75;;;21.65;;
38851;SDS011;24605;50.092;9.182;2022-11-20T13:00:21;47.13;;;20.15;;
38851;SDS011;24605;50.092;9.182;2022-11-20T13:08:20;43.08;;;18.80;;
38851;SDS011;24605;50.092;9.182;2022-11-20T13:10:49;44.38;;;18.95;;
38851;SDS011;24605;50.092;9.182;2022-11-20T13:13:23;32.03;;;14.32;;
38851;SDS011;24605;50.092;9.182;2022-11-20T13:15:58;33.13;;;15.77;;
38851;SDS011;24605;50.092;9.182;2022-11-20T13:18:27;39.40;;;17.27;;
38851;SDS011;24605;50.092;9.182;2022-11-20T13:21:00;32.38;;;15.82;;
38851;SDS011;24605;50.092;9.182;2022-11-20T13:23:29;34.75;;;16.00;;
38851;SDS011;24605;50.092;9.182;2022-11-20T13:26:05;34.95;;;15.18;;
38851;SDS011;24605;50.092;9.182;2022-11-20T13:31:09;38.95;;;18.30;;
38851;SDS011;24605;50.092;9.182;2022-11-20T13:33:50;38.20;;;17.13;;
38851;SDS011;24605;50.092;9.182;2022-11-20T13:36:21;37.78;;;16.80;;
38851;SDS011;24605;50.092;9.182;2022-11-20T13:38:51;31.92;;;15.95;;
38851;SDS011;24605;50.092;9.182;2022-11-20T13:41:23;41.80;;;18.55;;
38851;SDS011;24605;50.092;9.182;2022-11-20T13:43:57;46.83;;;20.92;;
38851;SDS011;24605;50.092;9.182;2022-11-20T13:46:35;39.40;;;18.48;;
38851;SDS011;24605;50.092;9.182;2022-11-20T13:49:06;41.13;;;18.30;;
38851;SDS011;24605;50.092;9.182;2022-11-20T13:51:36;42.95;;;19.88;;
38851;SDS011;24605;50.092;9.182;2022-11-20T13:57:16;42.92;;;18.50;;
38851;SDS011;24605;50.092;9.182;2022-11-20T13:59:59;40.83;;;21.48;;
38851;SDS011;24605;50.092;9.182;2022-11-20T14:02:35;39.78;;;16.77;;
38851;SDS011;24605;50.092;9.182;2022-11-20T14:05:02;37.53;;;16.42;;
38851;SDS011;24605;50.092;9.182;2022-11-20T14:07:31;37.60;;;17.55;;
38851;SDS011;24605;50.092;9.182;2022-11-20T14:10:03;36.72;;;17.38;;
38851;SDS011;24605;50.092;9.182;2022-11-20T14:12:31;40.47;;;19.20;;
38851;SDS011;24605;50.092;9.182;2022-11-20T14:15:01;37.92;;;18.02;;
38851;SDS011;24605;50.092;9.182;2022-11-20T14:17:30;43.28;;;20.45;;
38851;SDS011;24605;50.092;9.182;2022-11-20T14:19:58;42.17;;;20.05;;
38851;SDS011;24605;50.092;9.182;2022-11-20T14:22:27;39.95;;;19.52;;
38851;SDS011;24605;50.092;9.182;2022-11-20T14:25:01;39.63;;;17.90;;
38851;SDS011;24605;50.092;9.182;2022-11-20T14:27:32;37.63;;;17.92;;
38851;SDS011;24605;50.092;9.182;2022-11-20T14:30:02;34.95;;;17.05;;
38851;SDS011;24605;50.092;9.182;2022-11-20T14:32:29;35.80;;;17.17;;
38851;SDS011;24605;50.092;9.182;2022-11-20T14:34:58;34.28;;;16.25;;
38851;SDS011;24605;50.092;9.182;2022-11-20T14:37:28;33.88;;;16.55;;
38851;SDS011;24605;50.092;9.182;2022-11-20T14:39:59;33.42;;;15.82;;
38851;SDS011;24605;50.092;9.182;2022-11-20T14:42:28;36.63;;;16.63;;
38851;SDS011;24605;50.092;9.182;2022-11-20T14:44:56;31.20;;;15.05;;
38851;SDS011;24605;50.092;9.182;2022-11-20T14:47:24;33.55;;;15.60;;
38851;SDS011;24605;50.092;9.182;2022-11-20T14:49:53;30.23;;;14.93;;